createdAt,value
2024-01-05T00:01:58.409Z,95511.94
2024-01-05T00:04:55.291Z,95493.16
2024-01-05T00:07:52.134Z,95492.31
2024-01-05T00:10:48.996Z,95493.03
2024-01-05T00:13:49.337Z,95483.19
2024-01-05T00:16:46.389Z,95482.81
2024-01-05T00:19:43.299Z,95490.34
2024-01-05T00:22:40.257Z,95491.22
2024-01-05T00:25:37.100Z,95489.34
2024-01-05T00:28:33.967Z,95495.38
2024-01-05T00:31:30.994Z,95486.84
2024-01-05T00:34:28.162Z,95486.81
2024-01-05T00:37:25.095Z,95475.94
2024-01-05T00:40:22.006Z,95456.88
2024-01-05T00:43:18.851Z,95472.50
2024-01-05T00:46:15.925Z,95464.25
2024-01-05T00:49:12.964Z,95472.25
2024-01-05T00:52:09.943Z,95466.06
2024-01-05T00:55:06.946Z,95467.47
2024-01-05T00:58:04.607Z,95464.41
2024-01-05T01:01:01.641Z,95461.28
2024-01-05T01:03:58.709Z,95471.31
2024-01-05T01:06:55.645Z,95455.03
2024-01-05T01:09:52.517Z,95462.53
2024-01-05T01:12:49.374Z,95457.06
2024-01-05T01:15:46.207Z,95452.91
2024-01-05T01:18:43.883Z,95453.03
2024-01-05T01:21:40.979Z,95445.25
2024-01-05T01:24:37.916Z,95441.72
2024-01-05T01:27:35.523Z,95436.81
2024-01-05T01:30:32.554Z,95428.16
2024-01-05T01:33:29.548Z,95431.56
2024-01-05T01:36:26.908Z,95419.16
2024-01-05T01:39:23.831Z,95409.06
2024-01-05T01:42:20.828Z,95412.41
2024-01-05T01:45:17.816Z,95413.19
2024-01-05T01:48:18.601Z,95405.44
2024-01-05T01:51:15.583Z,95399.75
2024-01-05T01:54:12.599Z,95401.00
2024-01-05T01:57:09.969Z,95373.13
2024-01-05T02:00:08.447Z,95362.81
2024-01-05T02:03:05.804Z,95365.41
2024-01-05T02:06:02.729Z,95359.94
2024-01-05T02:08:59.650Z,95344.50
2024-01-05T02:11:56.756Z,95349.41
2024-01-05T02:14:53.706Z,95346.34
2024-01-05T02:17:50.643Z,95330.06
2024-01-05T02:20:48.564Z,95332.97
2024-01-05T02:23:45.438Z,95327.91
2024-01-05T02:26:42.681Z,95314.16
2024-01-05T02:29:39.718Z,95323.53
2024-01-05T02:32:36.608Z,95319.47
2024-01-05T02:35:33.503Z,95319.47
2024-01-05T02:38:30.386Z,95313.94
2024-01-05T02:41:27.407Z,95309.00
2024-01-05T02:44:24.405Z,95300.19
2024-01-05T02:47:21.295Z,95287.38
2024-01-05T02:50:19.607Z,95289.22
2024-01-05T02:53:16.456Z,95306.41
2024-01-05T02:56:22.117Z,95304.56
2024-01-05T02:59:20.197Z,95294.72
2024-01-05T03:02:17.099Z,95290.94
2024-01-05T03:05:14.139Z,95289.69
2024-01-05T03:08:11.102Z,95269.97
2024-01-05T03:11:07.975Z,95284.38
2024-01-05T03:14:04.957Z,95283.22
2024-01-05T03:17:03.558Z,95277.00
2024-01-05T03:20:00.577Z,95281.22
2024-01-05T03:22:57.695Z,95283.22
2024-01-05T03:25:54.691Z,95280.25
2024-01-05T03:28:54.014Z,95281.03
2024-01-05T03:31:50.875Z,95282.00
2024-01-05T03:34:47.739Z,95273.66
2024-01-05T03:37:44.615Z,95273.09
2024-01-05T03:40:41.467Z,95260.72
2024-01-05T03:43:38.341Z,95267.91
2024-01-05T03:46:35.198Z,95264.00
2024-01-05T03:49:32.101Z,95257.09
2024-01-05T03:52:29.128Z,95253.13
2024-01-05T03:55:26.013Z,95249.75
2024-01-05T03:58:22.871Z,95247.78
2024-01-05T04:01:19.750Z,95241.63
2024-01-05T04:04:17.257Z,95251.16
2024-01-05T04:07:14.338Z,95252.88
2024-01-05T04:10:11.413Z,95252.09
2024-01-05T04:13:09.111Z,95249.91
2024-01-05T04:16:08.136Z,95242.47
2024-01-05T04:19:05.183Z,95245.84
2024-01-05T04:22:02.170Z,95236.75
2024-01-05T04:25:00.229Z,95233.91
2024-01-05T04:27:58.965Z,95232.19
2024-01-05T04:30:55.910Z,95226.72
2024-01-05T04:33:53.453Z,95215.13
2024-01-05T04:36:50.392Z,95209.66
2024-01-05T04:39:47.245Z,95198.38
2024-01-05T04:42:44.132Z,95198.25
2024-01-05T04:45:41.617Z,95204.66
2024-01-05T04:48:38.802Z,95210.75
2024-01-05T04:51:36.184Z,95228.91
2024-01-05T04:54:33.141Z,95227.69
2024-01-05T04:57:30.136Z,95230.97
2024-01-05T05:00:27.130Z,95227.97
2024-01-05T05:03:26.129Z,95222.47
2024-01-05T05:06:23.063Z,95217.81
2024-01-05T05:09:19.944Z,95217.59
2024-01-05T05:12:16.946Z,95225.00
2024-01-05T05:15:13.862Z,95217.16
2024-01-05T05:18:10.973Z,95225.78
2024-01-05T05:21:08.174Z,95220.28
2024-01-05T05:24:05.129Z,95211.84
2024-01-05T05:27:02.046Z,95220.00
2024-01-05T05:29:58.992Z,95222.31
2024-01-05T05:32:56.147Z,95215.47
2024-01-05T05:35:53.212Z,95216.66
2024-01-05T05:38:50.184Z,95219.38
2024-01-05T05:41:47.172Z,95215.47
2024-01-05T05:44:44.117Z,95220.63
2024-01-05T05:47:41.578Z,95221.88
2024-01-05T05:50:38.510Z,95229.03
2024-01-05T05:53:35.384Z,95233.41
2024-01-05T05:56:32.253Z,95226.25
2024-01-05T05:59:29.141Z,95219.66
2024-01-05T06:02:26.616Z,95229.84
2024-01-05T06:05:23.584Z,95213.25
2024-01-05T06:08:20.509Z,95228.38
2024-01-05T06:11:17.796Z,95223.38
2024-01-05T06:14:14.722Z,95222.31
2024-01-05T06:17:11.578Z,95221.16
2024-01-05T06:20:09.400Z,95222.94
2024-01-05T06:23:06.365Z,95218.72
2024-01-05T06:26:03.320Z,95221.53
2024-01-05T06:29:00.229Z,95217.16
2024-01-05T06:31:57.090Z,95220.78
2024-01-05T06:34:54.051Z,95222.31
2024-01-05T06:37:50.989Z,95222.19
2024-01-05T06:40:47.849Z,95217.56
2024-01-05T06:43:44.786Z,95218.56
2024-01-05T06:46:41.646Z,95221.09
2024-01-05T06:49:38.667Z,95221.09
2024-01-05T06:52:35.900Z,95219.03
2024-01-05T06:55:32.761Z,95211.53
2024-01-05T06:58:30.532Z,95199.13
2024-01-05T07:01:27.414Z,95197.44
2024-01-05T07:04:24.570Z,95199.44
2024-01-05T07:07:21.472Z,95204.53
2024-01-05T07:10:18.374Z,95191.75
2024-01-05T07:13:15.275Z,95187.75
2024-01-05T07:16:22.949Z,95189.75
2024-01-05T07:19:20.291Z,95182.69
2024-01-05T07:22:17.507Z,95181.28
2024-01-05T07:25:14.495Z,95178.44
2024-01-05T07:28:11.398Z,95182.41
2024-01-05T07:31:09.779Z,95188.50
2024-01-05T07:34:06.997Z,95179.03
2024-01-05T07:37:04.820Z,95172.69
2024-01-05T07:40:01.788Z,95167.81
2024-01-05T07:42:58.660Z,95171.63
2024-01-05T07:45:55.659Z,95191.66
2024-01-05T07:48:52.780Z,95195.50
2024-01-05T07:51:50.111Z,95199.72
2024-01-05T07:54:47.522Z,95206.50
2024-01-05T07:57:48.313Z,95210.28
2024-01-05T08:00:45.768Z,95189.53
2024-01-05T08:03:43.183Z,95189.94
2024-01-05T08:06:40.085Z,95182.38
2024-01-05T08:09:37.005Z,95190.25
2024-01-05T08:12:34.043Z,95188.00
2024-01-05T08:15:31.350Z,95192.56
2024-01-05T08:18:28.358Z,95194.50
2024-01-05T08:21:25.337Z,95202.97
2024-01-05T08:24:22.916Z,95189.41
2024-01-05T08:27:20.021Z,95186.97
2024-01-05T08:30:17.083Z,95187.72
2024-01-05T08:33:15.139Z,95196.25
2024-01-05T08:36:12.176Z,95191.97
2024-01-05T08:39:09.197Z,95184.00
2024-01-05T08:42:06.647Z,95190.56
2024-01-05T08:45:03.818Z,95178.66
2024-01-05T08:48:01.488Z,95174.16
2024-01-05T08:50:58.426Z,95162.44
2024-01-05T08:53:55.511Z,95166.47
2024-01-05T08:56:52.451Z,95168.75
2024-01-05T08:59:49.321Z,95156.75
2024-01-05T09:02:46.297Z,95179.09
2024-01-05T09:05:43.492Z,95174.84
2024-01-05T09:08:40.431Z,95180.69
2024-01-05T09:11:37.828Z,95182.78
2024-01-05T09:14:34.776Z,95180.09
2024-01-05T09:17:31.764Z,95166.03
2024-01-05T09:20:28.623Z,95163.78
2024-01-05T09:23:25.535Z,95162.38
2024-01-05T09:26:22.463Z,95168.94
2024-01-05T09:29:19.349Z,95183.16
2024-01-05T09:32:17.018Z,95187.97
2024-01-05T09:35:13.876Z,95182.31
2024-01-05T09:38:10.770Z,95188.66
2024-01-05T09:41:10.487Z,95195.69
2024-01-05T09:44:07.883Z,95198.81
2024-01-05T09:47:05.565Z,95195.66
2024-01-05T09:50:06.082Z,95191.91
2024-01-05T09:53:05.699Z,95189.59
2024-01-05T09:56:04.843Z,95183.81
2024-01-05T09:59:02.021Z,95171.16
2024-01-05T10:02:03.794Z,95170.53
2024-01-05T10:05:02.278Z,95173.22
2024-01-05T10:07:59.254Z,95161.03
2024-01-05T10:11:02.137Z,95148.31
2024-01-05T10:14:01.624Z,95151.75
2024-01-05T10:17:11.846Z,95151.38
2024-01-05T10:20:14.997Z,95146.44
2024-01-05T10:23:12.116Z,95129.81
2024-01-05T10:26:18.059Z,95125.84
2024-01-05T10:29:16.313Z,95124.97
2024-01-05T10:32:14.010Z,95139.06
2024-01-05T10:35:10.912Z,95139.22
2024-01-05T10:38:12.384Z,95144.56
2024-01-05T10:41:09.277Z,95150.25
2024-01-05T10:44:06.762Z,95144.44
2024-01-05T10:47:03.756Z,95153.75
2024-01-05T10:50:01.078Z,95152.34
2024-01-05T10:52:58.336Z,95146.88
2024-01-05T10:55:58.140Z,95148.44
2024-01-05T10:58:55.218Z,95156.00
2024-01-05T11:01:52.865Z,95151.88
2024-01-05T11:05:01.101Z,95147.03
2024-01-05T11:08:02.041Z,95160.66
2024-01-05T11:11:11.874Z,95156.31
2024-01-05T11:14:40.542Z,95154.50
2024-01-05T11:18:16.544Z,95150.56
2024-01-05T11:21:24.075Z,95156.22
2024-01-05T11:24:23.179Z,95149.25
2024-01-05T11:27:35.479Z,95151.84
2024-01-05T11:30:45.189Z,95154.09
2024-01-05T11:33:50.576Z,95132.50
2024-01-05T11:36:50.902Z,95139.81
2024-01-05T11:39:51.067Z,95126.41
2024-01-05T11:42:48.987Z,95130.06
2024-01-05T11:45:45.959Z,95124.31
2024-01-05T11:48:42.870Z,95117.31
2024-01-05T11:51:39.810Z,95118.69
2024-01-05T11:54:36.985Z,95115.41
2024-01-05T11:57:33.922Z,95123.09
2024-01-05T12:00:31.121Z,95117.38
2024-01-05T12:03:31.654Z,95121.47
2024-01-05T12:06:30.434Z,95112.53
2024-01-05T12:09:27.509Z,95106.03
2024-01-05T12:12:25.873Z,95104.06
2024-01-05T12:15:24.185Z,95104.97
2024-01-05T12:18:33.800Z,95111.31
2024-01-05T12:21:34.723Z,95101.78
2024-01-05T12:24:31.699Z,95099.16
2024-01-05T12:27:37.637Z,95090.66
2024-01-05T12:30:36.148Z,95092.03
2024-01-05T12:33:39.175Z,95088.97
2024-01-05T12:36:36.360Z,95084.63
2024-01-05T12:39:33.311Z,95081.72
2024-01-05T12:42:30.308Z,95082.47
2024-01-05T12:45:27.793Z,95081.09
2024-01-05T12:48:30.557Z,95077.19
2024-01-05T12:51:27.505Z,95073.13
2024-01-05T12:54:26.379Z,95069.03
2024-01-05T12:57:23.671Z,95075.56
2024-01-05T13:00:23.497Z,95072.56
2024-01-05T13:03:20.499Z,95079.59
2024-01-05T13:06:17.511Z,95071.16
2024-01-05T13:09:14.427Z,95073.06
2024-01-05T13:12:11.879Z,95069.59
2024-01-05T13:15:09.327Z,95075.63
2024-01-05T13:18:06.408Z,95078.06
2024-01-05T13:21:04.306Z,95073.84
2024-01-05T13:24:01.324Z,95073.97
2024-01-05T13:26:59.428Z,95074.28
2024-01-05T13:29:56.497Z,95076.03
2024-01-05T13:32:54.319Z,95080.53
2024-01-05T13:35:51.203Z,95075.56
2024-01-05T13:38:49.373Z,95072.25
2024-01-05T13:41:46.262Z,95075.97
2024-01-05T13:44:43.111Z,95088.84
2024-01-05T13:47:40.125Z,95084.81
2024-01-05T13:50:37.007Z,95090.19
2024-01-05T13:53:33.888Z,95085.81
2024-01-05T13:56:31.689Z,95091.47
2024-01-05T13:59:28.717Z,95085.31
2024-01-05T14:02:26.756Z,95078.47
2024-01-05T14:05:23.688Z,95083.31
2024-01-05T14:08:23.312Z,95074.72
2024-01-05T14:11:23.397Z,95069.28
2024-01-05T14:14:20.261Z,95063.38
2024-01-05T14:17:17.169Z,95075.75
2024-01-05T14:20:14.377Z,95073.41
2024-01-05T14:23:11.337Z,95057.97
2024-01-05T14:26:11.574Z,95056.38
2024-01-05T14:29:08.438Z,95054.25
2024-01-05T14:32:05.545Z,95054.53
2024-01-05T14:35:06.494Z,95051.81
2024-01-05T14:38:03.961Z,95055.22
2024-01-05T14:41:00.817Z,95056.88
2024-01-05T14:43:57.705Z,95053.97
2024-01-05T14:46:55.448Z,95068.53
2024-01-05T14:49:52.597Z,95068.34
2024-01-05T14:52:55.925Z,95063.38
2024-01-05T14:56:00.984Z,95058.63
2024-01-05T14:58:57.844Z,95061.28
2024-01-05T15:01:56.523Z,95060.03
2024-01-05T15:04:54.143Z,95062.50
2024-01-05T15:07:51.175Z,95069.94
2024-01-05T15:10:48.108Z,95065.84
2024-01-05T15:13:44.970Z,95066.72
2024-01-05T15:16:42.305Z,95061.13
2024-01-05T15:19:41.089Z,95072.59
2024-01-05T15:22:38.208Z,95074.59
2024-01-05T15:25:35.075Z,95078.56
2024-01-05T15:28:31.944Z,95071.81
2024-01-05T15:31:29.384Z,95073.94
2024-01-05T15:34:26.387Z,95077.56
2024-01-05T15:37:23.320Z,95076.81
2024-01-05T15:43:20.236Z,95090.16
2024-01-05T15:46:18.113Z,95089.16
2024-01-05T15:49:15.218Z,95088.59
2024-01-05T15:52:12.144Z,95094.94
2024-01-05T15:55:09.160Z,95095.97
2024-01-05T15:58:06.061Z,95094.56
2024-01-05T16:01:03.684Z,95088.91
2024-01-05T16:04:00.851Z,95104.31
2024-01-05T16:06:57.800Z,95104.06
2024-01-05T16:09:54.754Z,95099.38
2024-01-05T16:12:51.695Z,95104.38
2024-01-05T16:15:48.748Z,95110.97
2024-01-05T16:18:45.935Z,95109.75
2024-01-05T16:21:43.705Z,95119.94
2024-01-05T16:24:40.856Z,95118.63
2024-01-05T16:27:37.835Z,95118.34
2024-01-05T16:30:36.858Z,95124.16
2024-01-05T16:33:34.909Z,95127.28
2024-01-05T16:36:31.952Z,95124.38
2024-01-05T16:39:29.105Z,95123.47
2024-01-05T16:42:26.041Z,95120.19
2024-01-05T16:45:22.935Z,95120.94
2024-01-05T16:48:20.298Z,95121.00
2024-01-05T16:51:17.805Z,95130.72
2024-01-05T16:54:14.872Z,95116.91
2024-01-05T16:57:13.635Z,95119.81
2024-01-05T17:00:11.428Z,95120.16
2024-01-05T17:03:10.572Z,95120.03
2024-01-05T17:06:18.915Z,95127.63
2024-01-05T17:12:13.846Z,95127.41
2024-01-05T17:15:11.121Z,95129.19
2024-01-05T17:18:08.301Z,95139.97
2024-01-05T17:21:06.185Z,95136.09
2024-01-05T17:24:03.716Z,95132.66
2024-01-05T17:27:00.579Z,95140.44
2024-01-05T17:29:57.463Z,95145.47
2024-01-05T17:32:54.431Z,95143.75
2024-01-05T17:35:52.192Z,95151.59
2024-01-05T17:38:50.793Z,95153.00
2024-01-05T17:41:47.655Z,95153.59
2024-01-05T17:44:44.757Z,95150.47
2024-01-05T17:47:41.689Z,95148.00
2024-01-05T17:50:38.744Z,95148.44
2024-01-05T17:53:37.832Z,95139.97
2024-01-05T17:56:36.530Z,95137.59
2024-01-05T17:59:34.626Z,95156.44
2024-01-05T18:02:31.514Z,95157.22
2024-01-05T18:05:28.728Z,95154.88
2024-01-05T18:08:25.582Z,95156.44
2024-01-05T18:11:26.872Z,95157.69
2024-01-05T18:14:24.557Z,95160.03
2024-01-05T18:17:21.409Z,95167.56
2024-01-05T18:20:18.273Z,95166.91
2024-01-05T18:23:17.617Z,95167.69
2024-01-05T18:26:22.335Z,95163.06
2024-01-05T18:29:25.305Z,95161.56
2024-01-05T18:32:26.179Z,95157.53
2024-01-05T18:35:23.082Z,95164.84
2024-01-05T18:38:19.935Z,95161.28
2024-01-05T18:41:30.684Z,95163.97
2024-01-05T18:44:27.484Z,95164.13
2024-01-05T18:47:24.435Z,95165.22
2024-01-05T18:50:21.339Z,95160.81
2024-01-05T18:53:18.288Z,95158.16
2024-01-05T18:56:15.329Z,95170.19
2024-01-05T18:59:12.219Z,95175.97
2024-01-05T19:02:09.083Z,95179.91
2024-01-05T19:05:06.752Z,95175.22
2024-01-05T19:08:04.483Z,95179.72
2024-01-05T19:11:04.111Z,95181.44
2024-01-05T19:14:01.624Z,95172.72
2024-01-05T19:16:59.310Z,95180.69
2024-01-05T19:19:56.339Z,95191.88
2024-01-05T19:22:54.661Z,95200.25
2024-01-05T19:25:51.686Z,95196.16
2024-01-05T19:28:48.545Z,95203.22
2024-01-05T19:31:45.595Z,95208.59
2024-01-05T19:34:42.741Z,95201.19
2024-01-05T19:37:39.650Z,95197.53
2024-01-05T19:40:37.292Z,95195.50
2024-01-05T19:43:34.204Z,95201.66
2024-01-05T19:46:31.297Z,95200.53
2024-01-05T19:49:30.100Z,95201.31
2024-01-05T19:52:27.085Z,95197.53
2024-01-05T19:55:24.080Z,95190.88
2024-01-05T19:58:21.001Z,95196.63
2024-01-05T20:01:18.255Z,95204.13
2024-01-05T20:04:17.260Z,95198.25
2024-01-05T20:07:14.909Z,95197.91
2024-01-05T20:10:12.097Z,95203.78
2024-01-05T20:13:09.991Z,95193.91
2024-01-05T20:16:07.514Z,95193.69
2024-01-05T20:19:09.718Z,95198.81
2024-01-05T20:22:07.331Z,95191.28
2024-01-05T20:25:07.856Z,95197.50
2024-01-05T20:28:10.011Z,95209.25
2024-01-05T20:31:06.982Z,95201.13
2024-01-05T20:34:06.072Z,95210.94
2024-01-05T20:37:03.180Z,95216.75
2024-01-05T20:40:00.153Z,95219.69
2024-01-05T20:42:59.437Z,95219.19
2024-01-05T20:45:56.314Z,95230.88
2024-01-05T20:48:53.729Z,95226.41
2024-01-05T20:51:51.519Z,95231.38
2024-01-05T20:54:48.547Z,95234.84
2024-01-05T20:57:45.564Z,95228.81
2024-01-05T21:00:42.537Z,95225.59
2024-01-05T21:03:39.515Z,95224.63
2024-01-05T21:06:43.475Z,95228.47
2024-01-05T21:09:40.740Z,95233.88
2024-01-05T21:12:37.706Z,95232.00
2024-01-05T21:15:34.686Z,95236.34
2024-01-05T21:18:31.656Z,95241.63
2024-01-05T21:21:29.879Z,95235.84
2024-01-05T21:24:27.619Z,95235.84
2024-01-05T21:27:24.780Z,95239.69
2024-01-05T21:30:21.740Z,95245.41
2024-01-05T21:33:18.815Z,95244.59
2024-01-05T21:36:16.106Z,95247.75
2024-01-05T21:39:17.459Z,95254.97
2024-01-05T21:42:14.723Z,95247.31
2024-01-05T21:45:11.665Z,95254.78
2024-01-05T21:48:09.461Z,95256.97
2024-01-05T21:51:06.414Z,95259.34
2024-01-05T21:54:03.297Z,95253.59
2024-01-05T21:57:02.988Z,95255.63
2024-01-05T22:00:01.565Z,95251.94
2024-01-05T22:02:58.686Z,95252.56
2024-01-05T22:05:55.593Z,95259.91
2024-01-05T22:08:54.327Z,95253.91
2024-01-05T22:11:51.244Z,95257.97
2024-01-05T22:14:49.130Z,95258.34
2024-01-05T22:17:46.230Z,95259.22
2024-01-05T22:20:43.466Z,95255.25
2024-01-05T22:23:41.779Z,95250.91
2024-01-05T22:26:38.888Z,95250.63
2024-01-05T22:29:36.213Z,95251.06
2024-01-05T22:32:33.135Z,95249.09
2024-01-05T22:35:30.032Z,95244.75
2024-01-05T22:38:29.420Z,95245.44
2024-01-05T22:41:26.880Z,95257.31
2024-01-05T22:44:23.740Z,95254.09
2024-01-05T22:47:20.563Z,95253.59
2024-01-05T22:50:18.219Z,95252.72
2024-01-05T22:53:15.788Z,95251.75
2024-01-05T22:56:12.728Z,95255.84
2024-01-05T22:59:09.596Z,95249.97
2024-01-05T23:02:06.475Z,95261.06
2024-01-05T23:05:03.915Z,95260.06
2024-01-05T23:08:00.791Z,95264.69
2024-01-05T23:10:58.319Z,95266.34
2024-01-05T23:13:55.193Z,95266.44
2024-01-05T23:16:53.412Z,95263.88
2024-01-05T23:19:51.145Z,95269.25
2024-01-05T23:22:48.054Z,95271.44
2024-01-05T23:25:44.937Z,95266.59
2024-01-05T23:28:42.538Z,95270.41
2024-01-05T23:31:41.549Z,95278.16
2024-01-05T23:34:38.663Z,95279.66
2024-01-05T23:37:35.763Z,95278.66
2024-01-05T23:40:32.622Z,95269.81
2024-01-05T23:43:29.503Z,95275.28
2024-01-05T23:46:26.523Z,95273.25
2024-01-05T23:49:23.510Z,95279.91
2024-01-05T23:52:20.474Z,95275.31
2024-01-05T23:55:17.531Z,95274.91
2024-01-05T23:58:14.447Z,95279.28
